sensor_id;sensor_type;location;lat;lon;timestamp;P1;durP1;ratioP1;P2;durP2;ratioP2
41887;SDS011;63122;52.424;13.458;2023-03-21T00:01:15;16.53;;;11.47;;
41887;SDS011;63122;52.424;13.458;2023-03-21T00:03:13;16.93;;;11.93;;
41887;SDS011;63122;52.424;13.458;2023-03-21T00:05:09;17.47;;;12.00;;
41887;SDS011;63122;52.424;13.458;2023-03-21T00:07:07;17.67;;;11.73;;
41887;SDS011;63122;52.424;13.458;2023-03-21T00:09:02;16.77;;;12.33;;
41887;SDS011;63122;52.424;13.458;2023-03-21T00:10:58;21.83;;;12.00;;
41887;SDS011;63122;52.424;13.458;2023-03-21T00:12:55;20.50;;;12.10;;
41887;SDS011;63122;52.424;13.458;2023-03-21T00:14:50;16.30;;;12.13;;
41887;SDS011;63122;52.424;13.458;2023-03-21T00:16:47;16.13;;;12.07;;
41887;SDS011;63122;52.424;13.458;2023-03-21T00:18:48;19.17;;;13.00;;
41887;SDS011;63122;52.424;13.458;2023-03-21T00:20:44;17.17;;;11.67;;
41887;SDS011;63122;52.424;13.458;2023-03-21T00:23:09;20.77;;;13.47;;
41887;SDS011;63122;52.424;13.458;2023-03-21T00:25:05;21.53;;;13.93;;
41887;SDS011;63122;52.424;13.458;2023-03-21T00:27:01;16.60;;;13.30;;
41887;SDS011;63122;52.424;13.458;2023-03-21T00:29:17;22.57;;;13.70;;
41887;SDS011;63122;52.424;13.458;2023-03-21T00:31:12;20.77;;;14.50;;
41887;SDS011;63122;52.424;13.458;2023-03-21T00:33:08;21.80;;;13.37;;
41887;SDS011;63122;52.424;13.458;2023-03-21T00:35:16;20.27;;;13.47;;
41887;SDS011;63122;52.424;13.458;2023-03-21T00:37:32;24.80;;;13.97;;
41887;SDS011;63122;52.424;13.458;2023-03-21T00:39:27;20.07;;;13.53;;
41887;SDS011;63122;52.424;13.458;2023-03-21T00:41:23;18.83;;;13.23;;
41887;SDS011;63122;52.424;13.458;2023-03-21T00:43:32;18.50;;;13.83;;
41887;SDS011;63122;52.424;13.458;2023-03-21T00:45:28;21.77;;;14.37;;
41887;SDS011;63122;52.424;13.458;2023-03-21T00:47:24;22.70;;;13.53;;
41887;SDS011;63122;52.424;13.458;2023-03-21T00:49:19;20.80;;;14.50;;
41887;SDS011;63122;52.424;13.458;2023-03-21T00:51:20;20.00;;;14.10;;
41887;SDS011;63122;52.424;13.458;2023-03-21T00:53:19;21.13;;;13.70;;
41887;SDS011;63122;52.424;13.458;2023-03-21T00:55:15;19.23;;;13.30;;
41887;SDS011;63122;52.424;13.458;2023-03-21T00:57:12;19.43;;;13.17;;
41887;SDS011;63122;52.424;13.458;2023-03-21T00:59:09;21.37;;;13.67;;
41887;SDS011;63122;52.424;13.458;2023-03-21T01:01:05;24.70;;;13.80;;
41887;SDS011;63122;52.424;13.458;2023-03-21T01:03:02;20.10;;;13.70;;
41887;SDS011;63122;52.424;13.458;2023-03-21T01:05:15;20.90;;;13.80;;
41887;SDS011;63122;52.424;13.458;2023-03-21T01:07:33;18.37;;;12.87;;
41887;SDS011;63122;52.424;13.458;2023-03-21T01:09:29;20.47;;;13.00;;
41887;SDS011;63122;52.424;13.458;2023-03-21T01:11:25;20.33;;;13.63;;
41887;SDS011;63122;52.424;13.458;2023-03-21T01:13:23;17.20;;;12.47;;
41887;SDS011;63122;52.424;13.458;2023-03-21T01:15:20;20.93;;;13.37;;
41887;SDS011;63122;52.424;13.458;2023-03-21T01:17:16;16.80;;;12.33;;
41887;SDS011;63122;52.424;13.458;2023-03-21T01:19:12;16.93;;;12.20;;
41887;SDS011;63122;52.424;13.458;2023-03-21T01:21:19;17.50;;;12.93;;
41887;SDS011;63122;52.424;13.458;2023-03-21T01:23:18;17.03;;;12.00;;
41887;SDS011;63122;52.424;13.458;2023-03-21T01:25:15;19.67;;;11.67;;
41887;SDS011;63122;52.424;13.458;2023-03-21T01:27:14;16.63;;;11.77;;
41887;SDS011;63122;52.424;13.458;2023-03-21T01:29:12;22.90;;;14.23;;
41887;SDS011;63122;52.424;13.458;2023-03-21T01:31:09;17.43;;;12.87;;
41887;SDS011;63122;52.424;13.458;2023-03-21T01:33:11;17.30;;;12.73;;
41887;SDS011;63122;52.424;13.458;2023-03-21T01:35:07;17.07;;;13.20;;
41887;SDS011;63122;52.424;13.458;2023-03-21T01:37:04;19.70;;;13.37;;
41887;SDS011;63122;52.424;13.458;2023-03-21T01:39:04;21.20;;;14.73;;
41887;SDS011;63122;52.424;13.458;2023-03-21T01:41:01;19.10;;;13.93;;
41887;SDS011;63122;52.424;13.458;2023-03-21T01:43:16;24.47;;;14.47;;
41887;SDS011;63122;52.424;13.458;2023-03-21T01:48:12;22.17;;;14.43;;
41887;SDS011;63122;52.424;13.458;2023-03-21T01:50:10;21.10;;;15.23;;
41887;SDS011;63122;52.424;13.458;2023-03-21T01:52:06;22.70;;;15.40;;
41887;SDS011;63122;52.424;13.458;2023-03-21T01:54:24;21.63;;;13.37;;
41887;SDS011;63122;52.424;13.458;2023-03-21T01:56:25;21.20;;;15.67;;
41887;SDS011;63122;52.424;13.458;2023-03-21T01:58:24;22.00;;;15.77;;
41887;SDS011;63122;52.424;13.458;2023-03-21T02:00:21;22.47;;;16.83;;
41887;SDS011;63122;52.424;13.458;2023-03-21T02:02:21;25.23;;;17.33;;
41887;SDS011;63122;52.424;13.458;2023-03-21T02:04:20;24.83;;;16.90;;
41887;SDS011;63122;52.424;13.458;2023-03-21T02:06:22;25.43;;;18.10;;
41887;SDS011;63122;52.424;13.458;2023-03-21T02:08:22;29.27;;;18.77;;
41887;SDS011;63122;52.424;13.458;2023-03-21T02:10:33;30.60;;;19.93;;
41887;SDS011;63122;52.424;13.458;2023-03-21T02:12:28;27.67;;;18.63;;
41887;SDS011;63122;52.424;13.458;2023-03-21T02:14:24;26.00;;;18.40;;
41887;SDS011;63122;52.424;13.458;2023-03-21T02:16:24;31.40;;;19.47;;
41887;SDS011;63122;52.424;13.458;2023-03-21T02:18:28;23.40;;;16.60;;
41887;SDS011;63122;52.424;13.458;2023-03-21T02:20:44;32.57;;;20.47;;
41887;SDS011;63122;52.424;13.458;2023-03-21T02:25:49;28.40;;;20.60;;
41887;SDS011;63122;52.424;13.458;2023-03-21T02:28:01;32.40;;;19.30;;
41887;SDS011;63122;52.424;13.458;2023-03-21T02:30:14;33.50;;;21.07;;
41887;SDS011;63122;52.424;13.458;2023-03-21T02:32:39;32.90;;;21.90;;
41887;SDS011;63122;52.424;13.458;2023-03-21T02:34:52;28.57;;;19.20;;
41887;SDS011;63122;52.424;13.458;2023-03-21T02:37:16;32.03;;;21.73;;
41887;SDS011;63122;52.424;13.458;2023-03-21T02:39:30;31.73;;;22.13;;
41887;SDS011;63122;52.424;13.458;2023-03-21T02:41:35;29.70;;;22.20;;
41887;SDS011;63122;52.424;13.458;2023-03-21T02:43:41;31.03;;;22.57;;
41887;SDS011;63122;52.424;13.458;2023-03-21T02:45:41;32.23;;;23.53;;
41887;SDS011;63122;52.424;13.458;2023-03-21T02:47:43;32.10;;;22.83;;
41887;SDS011;63122;52.424;13.458;2023-03-21T02:49:45;30.73;;;21.37;;
41887;SDS011;63122;52.424;13.458;2023-03-21T02:51:45;29.63;;;21.93;;
41887;SDS011;63122;52.424;13.458;2023-03-21T02:53:49;35.30;;;23.67;;
41887;SDS011;63122;52.424;13.458;2023-03-21T02:56:07;31.47;;;22.20;;
41887;SDS011;63122;52.424;13.458;2023-03-21T02:58:04;33.67;;;22.17;;
41887;SDS011;63122;52.424;13.458;2023-03-21T03:00:05;34.53;;;21.67;;
41887;SDS011;63122;52.424;13.458;2023-03-21T03:02:08;35.23;;;22.27;;
41887;SDS011;63122;52.424;13.458;2023-03-21T03:04:15;36.90;;;22.80;;
41887;SDS011;63122;52.424;13.458;2023-03-21T03:06:13;34.23;;;22.00;;
41887;SDS011;63122;52.424;13.458;2023-03-21T03:08:16;38.97;;;23.07;;
41887;SDS011;63122;52.424;13.458;2023-03-21T03:10:44;34.57;;;23.00;;
41887;SDS011;63122;52.424;13.458;2023-03-21T03:12:53;28.47;;;17.93;;
41887;SDS011;63122;52.424;13.458;2023-03-21T03:14:58;32.50;;;23.30;;
41887;SDS011;63122;52.424;13.458;2023-03-21T03:17:04;33.70;;;21.87;;
41887;SDS011;63122;52.424;13.458;2023-03-21T03:19:09;37.40;;;21.17;;
41887;SDS011;63122;52.424;13.458;2023-03-21T03:21:09;30.77;;;18.63;;
41887;SDS011;63122;52.424;13.458;2023-03-21T03:23:12;38.83;;;22.63;;
41887;SDS011;63122;52.424;13.458;2023-03-21T03:25:15;29.50;;;21.13;;
41887;SDS011;63122;52.424;13.458;2023-03-21T03:27:35;28.27;;;20.83;;
41887;SDS011;63122;52.424;13.458;2023-03-21T03:29:36;34.93;;;21.53;;
41887;SDS011;63122;52.424;13.458;2023-03-21T03:31:34;34.13;;;22.30;;
41887;SDS011;63122;52.424;13.458;2023-03-21T03:33:33;30.97;;;21.67;;
41887;SDS011;63122;52.424;13.458;2023-03-21T03:35:29;41.10;;;23.63;;
41887;SDS011;63122;52.424;13.458;2023-03-21T03:37:26;30.03;;;20.33;;
41887;SDS011;63122;52.424;13.458;2023-03-21T03:39:26;32.70;;;20.70;;
41887;SDS011;63122;52.424;13.458;2023-03-21T03:41:27;34.50;;;21.20;;
41887;SDS011;63122;52.424;13.458;2023-03-21T03:43:46;36.53;;;21.87;;
41887;SDS011;63122;52.424;13.458;2023-03-21T03:45:46;31.77;;;21.90;;
41887;SDS011;63122;52.424;13.458;2023-03-21T03:47:44;31.90;;;22.17;;
41887;SDS011;63122;52.424;13.458;2023-03-21T03:49:49;33.37;;;21.10;;
41887;SDS011;63122;52.424;13.458;2023-03-21T03:51:51;30.23;;;21.60;;
41887;SDS011;63122;52.424;13.458;2023-03-21T03:53:51;34.13;;;22.53;;
41887;SDS011;63122;52.424;13.458;2023-03-21T03:55:51;33.20;;;21.23;;
41887;SDS011;63122;52.424;13.458;2023-03-21T03:57:49;33.47;;;22.83;;
41887;SDS011;63122;52.424;13.458;2023-03-21T03:59:47;36.47;;;22.77;;
41887;SDS011;63122;52.424;13.458;2023-03-21T04:01:43;31.93;;;22.03;;
41887;SDS011;63122;52.424;13.458;2023-03-21T04:03:39;35.17;;;22.60;;
41887;SDS011;63122;52.424;13.458;2023-03-21T04:05:42;35.27;;;23.50;;
41887;SDS011;63122;52.424;13.458;2023-03-21T04:07:38;34.63;;;19.90;;
41887;SDS011;63122;52.424;13.458;2023-03-21T04:09:33;34.03;;;22.63;;
41887;SDS011;63122;52.424;13.458;2023-03-21T04:11:35;33.23;;;22.90;;
41887;SDS011;63122;52.424;13.458;2023-03-21T04:13:31;36.40;;;23.33;;
41887;SDS011;63122;52.424;13.458;2023-03-21T04:15:29;39.97;;;22.87;;
41887;SDS011;63122;52.424;13.458;2023-03-21T04:17:24;33.47;;;22.00;;
41887;SDS011;63122;52.424;13.458;2023-03-21T04:19:19;33.67;;;21.93;;
41887;SDS011;63122;52.424;13.458;2023-03-21T04:21:15;32.87;;;22.47;;
41887;SDS011;63122;52.424;13.458;2023-03-21T04:23:10;37.10;;;22.63;;
41887;SDS011;63122;52.424;13.458;2023-03-21T04:25:06;32.67;;;22.43;;
41887;SDS011;63122;52.424;13.458;2023-03-21T04:27:02;39.93;;;23.03;;
41887;SDS011;63122;52.424;13.458;2023-03-21T04:28:57;33.43;;;21.40;;
41887;SDS011;63122;52.424;13.458;2023-03-21T04:30:56;37.40;;;22.47;;
41887;SDS011;63122;52.424;13.458;2023-03-21T04:33:02;37.87;;;22.77;;
41887;SDS011;63122;52.424;13.458;2023-03-21T04:34:57;38.20;;;24.00;;
41887;SDS011;63122;52.424;13.458;2023-03-21T04:36:53;36.37;;;23.07;;
41887;SDS011;63122;52.424;13.458;2023-03-21T04:38:48;39.57;;;23.27;;
41887;SDS011;63122;52.424;13.458;2023-03-21T04:40:44;37.93;;;23.07;;
41887;SDS011;63122;52.424;13.458;2023-03-21T04:42:39;33.57;;;20.90;;
41887;SDS011;63122;52.424;13.458;2023-03-21T04:44:34;38.87;;;22.97;;
41887;SDS011;63122;52.424;13.458;2023-03-21T04:46:31;36.90;;;22.40;;
41887;SDS011;63122;52.424;13.458;2023-03-21T04:48:27;33.03;;;21.10;;
41887;SDS011;63122;52.424;13.458;2023-03-21T04:50:22;37.97;;;23.07;;
41887;SDS011;63122;52.424;13.458;2023-03-21T04:52:18;41.20;;;24.13;;
41887;SDS011;63122;52.424;13.458;2023-03-21T04:54:15;38.23;;;23.07;;
41887;SDS011;63122;52.424;13.458;2023-03-21T04:56:12;39.63;;;23.83;;
41887;SDS011;63122;52.424;13.458;2023-03-21T04:58:07;39.57;;;22.30;;
41887;SDS011;63122;52.424;13.458;2023-03-21T05:00:04;38.40;;;22.20;;
41887;SDS011;63122;52.424;13.458;2023-03-21T05:02:07;32.47;;;22.73;;
41887;SDS011;63122;52.424;13.458;2023-03-21T05:04:03;33.80;;;22.30;;
41887;SDS011;63122;52.424;13.458;2023-03-21T05:05:59;37.23;;;22.50;;
41887;SDS011;63122;52.424;13.458;2023-03-21T05:07:54;39.90;;;23.13;;
41887;SDS011;63122;52.424;13.458;2023-03-21T05:09:49;39.97;;;23.03;;
41887;SDS011;63122;52.424;13.458;2023-03-21T05:11:44;35.53;;;22.50;;
41887;SDS011;63122;52.424;13.458;2023-03-21T05:13:39;36.50;;;23.00;;
41887;SDS011;63122;52.424;13.458;2023-03-21T05:15:35;41.77;;;23.80;;
41887;SDS011;63122;52.424;13.458;2023-03-21T05:17:30;37.27;;;23.10;;
41887;SDS011;63122;52.424;13.458;2023-03-21T05:19:27;38.27;;;26.07;;
41887;SDS011;63122;52.424;13.458;2023-03-21T05:21:26;39.90;;;22.47;;
41887;SDS011;63122;52.424;13.458;2023-03-21T05:23:25;40.03;;;24.30;;
41887;SDS011;63122;52.424;13.458;2023-03-21T05:25:22;38.70;;;22.77;;
41887;SDS011;63122;52.424;13.458;2023-03-21T05:27:26;35.67;;;23.07;;
41887;SDS011;63122;52.424;13.458;2023-03-21T05:29:27;36.60;;;22.73;;
41887;SDS011;63122;52.424;13.458;2023-03-21T05:31:23;47.27;;;26.77;;
41887;SDS011;63122;52.424;13.458;2023-03-21T05:33:21;36.70;;;24.20;;
41887;SDS011;63122;52.424;13.458;2023-03-21T05:35:16;36.73;;;22.83;;
41887;SDS011;63122;52.424;13.458;2023-03-21T05:37:11;33.00;;;21.17;;
41887;SDS011;63122;52.424;13.458;2023-03-21T05:39:07;43.90;;;25.83;;
41887;SDS011;63122;52.424;13.458;2023-03-21T05:41:02;36.00;;;22.87;;
41887;SDS011;63122;52.424;13.458;2023-03-21T05:42:58;40.07;;;22.57;;
41887;SDS011;63122;52.424;13.458;2023-03-21T05:44:53;33.50;;;22.47;;
41887;SDS011;63122;52.424;13.458;2023-03-21T05:46:48;38.07;;;25.03;;
41887;SDS011;63122;52.424;13.458;2023-03-21T05:48:46;37.37;;;23.57;;
41887;SDS011;63122;52.424;13.458;2023-03-21T05:50:42;35.30;;;23.17;;
41887;SDS011;63122;52.424;13.458;2023-03-21T05:52:37;36.40;;;24.70;;
41887;SDS011;63122;52.424;13.458;2023-03-21T05:54:32;38.97;;;22.73;;
41887;SDS011;63122;52.424;13.458;2023-03-21T05:56:27;40.37;;;22.90;;
41887;SDS011;63122;52.424;13.458;2023-03-21T05:58:23;41.47;;;23.57;;
41887;SDS011;63122;52.424;13.458;2023-03-21T06:00:18;40.77;;;23.70;;
41887;SDS011;63122;52.424;13.458;2023-03-21T06:02:15;37.57;;;23.77;;
41887;SDS011;63122;52.424;13.458;2023-03-21T06:04:12;41.00;;;24.03;;
41887;SDS011;63122;52.424;13.458;2023-03-21T06:06:09;38.23;;;23.90;;
41887;SDS011;63122;52.424;13.458;2023-03-21T06:08:04;38.50;;;23.20;;
41887;SDS011;63122;52.424;13.458;2023-03-21T06:10:00;41.03;;;24.23;;
41887;SDS011;63122;52.424;13.458;2023-03-21T06:11:55;33.47;;;22.63;;
41887;SDS011;63122;52.424;13.458;2023-03-21T06:13:51;43.43;;;24.00;;
41887;SDS011;63122;52.424;13.458;2023-03-21T06:15:49;39.23;;;24.40;;
41887;SDS011;63122;52.424;13.458;2023-03-21T06:17:44;40.70;;;23.37;;
41887;SDS011;63122;52.424;13.458;2023-03-21T06:19:42;37.33;;;23.83;;
41887;SDS011;63122;52.424;13.458;2023-03-21T06:21:38;35.80;;;22.67;;
41887;SDS011;63122;52.424;13.458;2023-03-21T06:23:33;42.37;;;23.90;;
41887;SDS011;63122;52.424;13.458;2023-03-21T06:25:29;41.27;;;24.23;;
41887;SDS011;63122;52.424;13.458;2023-03-21T06:27:28;41.87;;;23.43;;
41887;SDS011;63122;52.424;13.458;2023-03-21T06:29:23;34.80;;;23.03;;
41887;SDS011;63122;52.424;13.458;2023-03-21T06:31:19;39.80;;;23.27;;
41887;SDS011;63122;52.424;13.458;2023-03-21T06:33:16;39.77;;;22.93;;
41887;SDS011;63122;52.424;13.458;2023-03-21T06:35:14;44.47;;;24.83;;
41887;SDS011;63122;52.424;13.458;2023-03-21T06:37:10;37.40;;;23.57;;
41887;SDS011;63122;52.424;13.458;2023-03-21T06:39:05;47.63;;;26.00;;
41887;SDS011;63122;52.424;13.458;2023-03-21T06:41:01;42.53;;;25.33;;
41887;SDS011;63122;52.424;13.458;2023-03-21T06:42:58;42.53;;;24.63;;
41887;SDS011;63122;52.424;13.458;2023-03-21T06:44:53;46.03;;;24.93;;
41887;SDS011;63122;52.424;13.458;2023-03-21T06:46:48;41.73;;;24.30;;
41887;SDS011;63122;52.424;13.458;2023-03-21T06:48:44;41.13;;;25.30;;
41887;SDS011;63122;52.424;13.458;2023-03-21T06:50:41;47.63;;;25.73;;
41887;SDS011;63122;52.424;13.458;2023-03-21T06:52:36;41.33;;;25.37;;
41887;SDS011;63122;52.424;13.458;2023-03-21T06:54:32;38.47;;;24.10;;
41887;SDS011;63122;52.424;13.458;2023-03-21T06:56:27;38.77;;;25.23;;
41887;SDS011;63122;52.424;13.458;2023-03-21T06:58:22;41.87;;;25.67;;
41887;SDS011;63122;52.424;13.458;2023-03-21T07:00:18;42.20;;;24.70;;
41887;SDS011;63122;52.424;13.458;2023-03-21T07:02:14;41.90;;;26.23;;
41887;SDS011;63122;52.424;13.458;2023-03-21T07:04:10;42.37;;;25.67;;
41887;SDS011;63122;52.424;13.458;2023-03-21T07:06:08;46.63;;;25.53;;
41887;SDS011;63122;52.424;13.458;2023-03-21T07:08:06;39.80;;;24.57;;
41887;SDS011;63122;52.424;13.458;2023-03-21T07:10:05;37.80;;;24.40;;
41887;SDS011;63122;52.424;13.458;2023-03-21T07:12:01;46.20;;;26.03;;
41887;SDS011;63122;52.424;13.458;2023-03-21T07:13:56;45.40;;;25.53;;
41887;SDS011;63122;52.424;13.458;2023-03-21T07:15:52;48.10;;;26.57;;
41887;SDS011;63122;52.424;13.458;2023-03-21T07:17:47;44.47;;;25.93;;
41887;SDS011;63122;52.424;13.458;2023-03-21T07:19:43;42.67;;;25.33;;
41887;SDS011;63122;52.424;13.458;2023-03-21T07:21:40;47.97;;;27.40;;
41887;SDS011;63122;52.424;13.458;2023-03-21T07:23:36;39.87;;;24.83;;
41887;SDS011;63122;52.424;13.458;2023-03-21T07:25:32;42.27;;;27.57;;
41887;SDS011;63122;52.424;13.458;2023-03-21T07:27:28;39.97;;;26.33;;
41887;SDS011;63122;52.424;13.458;2023-03-21T07:29:23;47.30;;;27.37;;
41887;SDS011;63122;52.424;13.458;2023-03-21T07:31:18;43.03;;;27.30;;
41887;SDS011;63122;52.424;13.458;2023-03-21T07:33:17;40.13;;;25.63;;
41887;SDS011;63122;52.424;13.458;2023-03-21T07:35:15;45.57;;;26.33;;
41887;SDS011;63122;52.424;13.458;2023-03-21T07:37:13;40.53;;;26.00;;
41887;SDS011;63122;52.424;13.458;2023-03-21T07:39:09;47.53;;;27.33;;
41887;SDS011;63122;52.424;13.458;2023-03-21T07:41:05;43.23;;;27.13;;
41887;SDS011;63122;52.424;13.458;2023-03-21T07:43:00;44.10;;;27.50;;
41887;SDS011;63122;52.424;13.458;2023-03-21T07:44:55;45.93;;;28.63;;
41887;SDS011;63122;52.424;13.458;2023-03-21T07:46:51;45.17;;;27.23;;
41887;SDS011;63122;52.424;13.458;2023-03-21T07:48:46;49.17;;;28.47;;
41887;SDS011;63122;52.424;13.458;2023-03-21T07:50:41;40.70;;;26.37;;
41887;SDS011;63122;52.424;13.458;2023-03-21T07:52:39;48.87;;;28.07;;
41887;SDS011;63122;52.424;13.458;2023-03-21T07:54:34;43.53;;;27.70;;
41887;SDS011;63122;52.424;13.458;2023-03-21T07:56:29;46.57;;;27.53;;
41887;SDS011;63122;52.424;13.458;2023-03-21T07:58:25;41.90;;;26.73;;
41887;SDS011;63122;52.424;13.458;2023-03-21T08:00:20;44.07;;;26.80;;
41887;SDS011;63122;52.424;13.458;2023-03-21T08:02:16;46.17;;;27.30;;
41887;SDS011;63122;52.424;13.458;2023-03-21T08:04:11;45.50;;;27.30;;
41887;SDS011;63122;52.424;13.458;2023-03-21T08:06:07;42.40;;;26.20;;
41887;SDS011;63122;52.424;13.458;2023-03-21T08:08:06;45.33;;;27.33;;
41887;SDS011;63122;52.424;13.458;2023-03-21T08:10:02;44.70;;;27.57;;
41887;SDS011;63122;52.424;13.458;2023-03-21T08:11:57;41.97;;;25.70;;
41887;SDS011;63122;52.424;13.458;2023-03-21T08:13:52;39.17;;;24.57;;
41887;SDS011;63122;52.424;13.458;2023-03-21T08:15:47;44.13;;;26.40;;
41887;SDS011;63122;52.424;13.458;2023-03-21T08:17:42;42.97;;;26.43;;
41887;SDS011;63122;52.424;13.458;2023-03-21T08:19:38;45.40;;;27.20;;
41887;SDS011;63122;52.424;13.458;2023-03-21T08:21:34;45.73;;;26.03;;
41887;SDS011;63122;52.424;13.458;2023-03-21T08:23:32;45.27;;;27.50;;
41887;SDS011;63122;52.424;13.458;2023-03-21T08:25:27;40.50;;;26.60;;
41887;SDS011;63122;52.424;13.458;2023-03-21T08:27:23;45.87;;;27.50;;
41887;SDS011;63122;52.424;13.458;2023-03-21T08:29:18;43.37;;;26.80;;
41887;SDS011;63122;52.424;13.458;2023-03-21T08:31:16;41.03;;;25.90;;
41887;SDS011;63122;52.424;13.458;2023-03-21T08:33:12;48.00;;;27.47;;
41887;SDS011;63122;52.424;13.458;2023-03-21T08:35:09;41.90;;;26.20;;
41887;SDS011;63122;52.424;13.458;2023-03-21T08:37:06;52.00;;;28.13;;
41887;SDS011;63122;52.424;13.458;2023-03-21T08:39:04;48.57;;;28.00;;
41887;SDS011;63122;52.424;13.458;2023-03-21T08:41:01;45.93;;;26.57;;
41887;SDS011;63122;52.424;13.458;2023-03-21T08:42:57;44.33;;;27.63;;
41887;SDS011;63122;52.424;13.458;2023-03-21T08:44:53;50.13;;;28.63;;
41887;SDS011;63122;52.424;13.458;2023-03-21T08:46:48;47.80;;;26.93;;
41887;SDS011;63122;52.424;13.458;2023-03-21T08:48:44;49.57;;;28.13;;
41887;SDS011;63122;52.424;13.458;2023-03-21T08:50:39;41.33;;;25.53;;
41887;SDS011;63122;52.424;13.458;2023-03-21T08:52:35;46.73;;;27.20;;
41887;SDS011;63122;52.424;13.458;2023-03-21T08:54:33;41.00;;;25.97;;
41887;SDS011;63122;52.424;13.458;2023-03-21T08:56:29;41.30;;;24.57;;
41887;SDS011;63122;52.424;13.458;2023-03-21T08:58:27;40.13;;;25.23;;
41887;SDS011;63122;52.424;13.458;2023-03-21T09:00:22;45.07;;;26.37;;
41887;SDS011;63122;52.424;13.458;2023-03-21T09:02:18;49.70;;;26.57;;
41887;SDS011;63122;52.424;13.458;2023-03-21T09:04:13;41.57;;;26.93;;
41887;SDS011;63122;52.424;13.458;2023-03-21T09:06:10;45.50;;;26.93;;
41887;SDS011;63122;52.424;13.458;2023-03-21T09:08:06;49.10;;;28.30;;
41887;SDS011;63122;52.424;13.458;2023-03-21T09:10:07;50.07;;;29.33;;
41887;SDS011;63122;52.424;13.458;2023-03-21T09:12:12;42.83;;;25.50;;
41887;SDS011;63122;52.424;13.458;2023-03-21T09:14:07;43.17;;;26.33;;
41887;SDS011;63122;52.424;13.458;2023-03-21T09:16:03;42.13;;;27.73;;
41887;SDS011;63122;52.424;13.458;2023-03-21T09:17:59;43.07;;;27.57;;
41887;SDS011;63122;52.424;13.458;2023-03-21T09:20:04;47.23;;;27.17;;
41887;SDS011;63122;52.424;13.458;2023-03-21T09:22:02;46.20;;;26.80;;
41887;SDS011;63122;52.424;13.458;2023-03-21T09:24:01;45.73;;;27.80;;
41887;SDS011;63122;52.424;13.458;2023-03-21T09:26:00;50.27;;;28.27;;
41887;SDS011;63122;52.424;13.458;2023-03-21T09:27:56;45.73;;;28.30;;
41887;SDS011;63122;52.424;13.458;2023-03-21T09:29:53;46.57;;;25.97;;
41887;SDS011;63122;52.424;13.458;2023-03-21T09:31:48;44.87;;;28.30;;
41887;SDS011;63122;52.424;13.458;2023-03-21T09:33:44;42.37;;;27.10;;
41887;SDS011;63122;52.424;13.458;2023-03-21T09:35:40;43.20;;;27.37;;
41887;SDS011;63122;52.424;13.458;2023-03-21T09:37:36;42.70;;;26.70;;
41887;SDS011;63122;52.424;13.458;2023-03-21T09:39:33;46.97;;;26.67;;
41887;SDS011;63122;52.424;13.458;2023-03-21T09:41:34;46.83;;;26.87;;
41887;SDS011;63122;52.424;13.458;2023-03-21T09:43:50;43.43;;;26.80;;
41887;SDS011;63122;52.424;13.458;2023-03-21T09:45:57;39.93;;;24.67;;
41887;SDS011;63122;52.424;13.458;2023-03-21T09:47:56;38.83;;;24.33;;
41887;SDS011;63122;52.424;13.458;2023-03-21T09:49:52;44.47;;;26.13;;
41887;SDS011;63122;52.424;13.458;2023-03-21T09:52:08;37.37;;;24.13;;
41887;SDS011;63122;52.424;13.458;2023-03-21T09:54:11;37.97;;;24.17;;
41887;SDS011;63122;52.424;13.458;2023-03-21T09:56:11;40.37;;;25.53;;
41887;SDS011;63122;52.424;13.458;2023-03-21T09:58:12;41.17;;;24.67;;
41887;SDS011;63122;52.424;13.458;2023-03-21T10:00:20;41.03;;;24.20;;
41887;SDS011;63122;52.424;13.458;2023-03-21T10:02:28;40.93;;;24.90;;
41887;SDS011;63122;52.424;13.458;2023-03-21T10:04:30;38.63;;;23.67;;
41887;SDS011;63122;52.424;13.458;2023-03-21T10:06:27;32.43;;;22.37;;
41887;SDS011;63122;52.424;13.458;2023-03-21T10:08:23;37.93;;;23.43;;
41887;SDS011;63122;52.424;13.458;2023-03-21T10:10:23;35.43;;;23.03;;
41887;SDS011;63122;52.424;13.458;2023-03-21T10:12:22;33.53;;;23.23;;
41887;SDS011;63122;52.424;13.458;2023-03-21T10:14:24;34.13;;;22.23;;
41887;SDS011;63122;52.424;13.458;2023-03-21T10:16:25;32.10;;;20.23;;
41887;SDS011;63122;52.424;13.458;2023-03-21T10:18:23;36.60;;;21.13;;
41887;SDS011;63122;52.424;13.458;2023-03-21T10:20:21;32.83;;;21.23;;
41887;SDS011;63122;52.424;13.458;2023-03-21T10:22:19;31.37;;;20.10;;
41887;SDS011;63122;52.424;13.458;2023-03-21T10:24:15;35.57;;;20.83;;
41887;SDS011;63122;52.424;13.458;2023-03-21T10:26:13;29.53;;;19.83;;
41887;SDS011;63122;52.424;13.458;2023-03-21T10:28:14;32.20;;;19.77;;
41887;SDS011;63122;52.424;13.458;2023-03-21T10:30:18;32.33;;;20.07;;
41887;SDS011;63122;52.424;13.458;2023-03-21T10:32:20;37.17;;;21.20;;
41887;SDS011;63122;52.424;13.458;2023-03-21T10:34:16;33.13;;;20.83;;
41887;SDS011;63122;52.424;13.458;2023-03-21T10:36:14;30.50;;;19.60;;
41887;SDS011;63122;52.424;13.458;2023-03-21T10:38:13;28.27;;;18.37;;
41887;SDS011;63122;52.424;13.458;2023-03-21T10:40:13;30.07;;;20.10;;
41887;SDS011;63122;52.424;13.458;2023-03-21T10:42:12;31.70;;;20.20;;
41887;SDS011;63122;52.424;13.458;2023-03-21T10:44:13;28.67;;;18.87;;
41887;SDS011;63122;52.424;13.458;2023-03-21T10:46:15;28.47;;;17.90;;
41887;SDS011;63122;52.424;13.458;2023-03-21T10:48:12;31.43;;;18.53;;
41887;SDS011;63122;52.424;13.458;2023-03-21T10:50:11;33.97;;;19.63;;
41887;SDS011;63122;52.424;13.458;2023-03-21T10:52:16;33.23;;;20.57;;
41887;SDS011;63122;52.424;13.458;2023-03-21T10:54:14;31.30;;;20.77;;
41887;SDS011;63122;52.424;13.458;2023-03-21T10:56:12;30.07;;;20.30;;
41887;SDS011;63122;52.424;13.458;2023-03-21T10:58:09;30.50;;;19.33;;
41887;SDS011;63122;52.424;13.458;2023-03-21T11:00:18;33.57;;;20.03;;
41887;SDS011;63122;52.424;13.458;2023-03-21T11:02:20;31.17;;;20.37;;
41887;SDS011;63122;52.424;13.458;2023-03-21T11:04:21;35.30;;;19.50;;
41887;SDS011;63122;52.424;13.458;2023-03-21T11:06:21;28.30;;;18.77;;
41887;SDS011;63122;52.424;13.458;2023-03-21T11:08:22;29.87;;;19.43;;
41887;SDS011;63122;52.424;13.458;2023-03-21T11:10:25;27.77;;;18.53;;
41887;SDS011;63122;52.424;13.458;2023-03-21T11:12:28;31.03;;;19.60;;
41887;SDS011;63122;52.424;13.458;2023-03-21T11:14:32;31.93;;;19.47;;
41887;SDS011;63122;52.424;13.458;2023-03-21T11:16:31;28.03;;;18.17;;
41887;SDS011;63122;52.424;13.458;2023-03-21T11:18:35;34.90;;;18.57;;
41887;SDS011;63122;52.424;13.458;2023-03-21T11:20:34;28.60;;;18.93;;
41887;SDS011;63122;52.424;13.458;2023-03-21T11:22:39;28.30;;;17.60;;
41887;SDS011;63122;52.424;13.458;2023-03-21T11:24:36;24.77;;;17.23;;
41887;SDS011;63122;52.424;13.458;2023-03-21T11:26:32;28.27;;;17.53;;
41887;SDS011;63122;52.424;13.458;2023-03-21T11:28:35;28.43;;;17.20;;
41887;SDS011;63122;52.424;13.458;2023-03-21T11:30:33;30.80;;;17.43;;
41887;SDS011;63122;52.424;13.458;2023-03-21T11:32:30;27.43;;;17.03;;